WMKCWMKP

Guest
Details From WMKC - Kota Bahru Sultan Ismail Petra
To WMKP - Penang Intl
Flight Number -
Tags generated
Created
Modified
Stats Distance 136 nm / 253 km
Max Altitude 12,500 ft / 3,810 m
Waypoints 4
Social Downloads 0
Likes 0
Share VATSIM

Download

Looking for another format? Having issues loading an existing format? Contact us
Advertisement - Login to hide

Notes

Basic altitude profile: - Ascent Rate: 2500ft/min - Ascent Speed: 250kts - Cruise Altitude: 35000ft - Cruise Speed: 420kts - Descent Rate: 1500ft/min - Descent Speed: 250kts Options: - Use NATs: yes - Use PACOTS: yes - Use low airways: yes - Use high airways: yes

Route

WMKC VKB B219 VPG WMKP

ID Type Via Altitude Latitude Longitude Leg Dist Tot Dist Heading (true) Name
O WMKC APT - 0 ft / 0 m 6.16685˚ 102.29301˚ - 0 nm - Kota Bahru Sultan Ismail Petra
VKB VOR - 400 ft / 122 m 6.16342˚ 102.31419˚ 1 nm 1 nm 99° / 99° KOTA BHARU VOR-DME
VPG VOR B219 (AWY-LO) 12,500 ft / 3,810 m 5.27964˚ 100.26039˚ 133 nm 134 nm 247° / 247° PENANG VOR-DME
O WMKP APT - 0 ft / 0 m 5.29714˚ 100.27686˚ 1 nm 136 nm 43° / 43° Penang Intl

Altitude Profile

Advertisement - Login to hide

WMKC

Details ICAO WMKC (KBR)
Name Kota Bahru Sultan Ismail Petra
Region Malaysia (Peninsular Malaysia)
Timezone Asia/Kuala_Lumpur (UTC+8.0)
Stats Elevation 16 ft / 5 m (AMSL)
Location 6.166851° 102.293014°
Runways 1
Magnetic Variation 0.119° W

METAR

WMKC 171200Z 09009KT 030V150 9999 SCT020 BKN280 27/23 Q1012

Decode

TAF

Not found

Departure Runways

ID Width Length Bearing (true) Bearing (mag) Surface Threshold Offset Overrun Length
10 150 ft / 46 m 6,978 ft / 2,127 m 99.73° 99.85° Asphalt 500 ft / 152 m 0 ft / 0 m
28 150 ft / 46 m 6,978 ft / 2,127 m 279.73° 279.85° Asphalt 200 ft / 61 m 260 ft / 79 m

WMKP

Details ICAO WMKP (PEN)
Name Penang Intl
Region Malaysia (Peninsular Malaysia)
Timezone Asia/Kuala_Lumpur (UTC+8.0)
Stats Elevation 11 ft / 3 m (AMSL)
Location 5.297141° 100.276865°
Runways 1
Magnetic Variation 0.206° W

METAR

WMKP 171200Z 00000KT 9000 FEW017CB SCT140 BKN270 27/23 Q1010 RETS NOSIG

Decode

TAF

Not found

Destination Runways

ID Width Length Bearing (true) Bearing (mag) Surface Threshold Offset Overrun Length
04 150 ft / 46 m 11,042 ft / 3,366 m 42.02° 42.23° Asphalt 0 ft / 0 m 205 ft / 62 m
22 150 ft / 46 m 11,042 ft / 3,366 m 222.02° 222.23° Asphalt 0 ft / 0 m 205 ft / 62 m

Approach Navaids

Runway Type Ident Frequency Range Bearing (true) Bearing (mag) Slope Elevation
04 Localiser IPG 109.90 MHz 18 nm / 33 km 42.88° 43.09° - 12 ft / 4 m (AMSL)
04 Glidescope IPG 109.90 MHz 10 nm / 19 km 42.02° 42.22° 3.00° 11 ft / 3 m (AMSL)
04 DME IPG 109.90 MHz 18 nm / 33 km - - - 11 ft / 3 m (AMSL)

Popular Alternatives